createdAt,value
2023-01-04T00:01:51.101Z,55.51
2023-01-04T00:04:17.644Z,55.24
2023-01-04T00:06:44.187Z,55.12
2023-01-04T00:09:10.702Z,54.94
2023-01-04T00:11:37.307Z,56.24
2023-01-04T00:14:03.968Z,55.42
2023-01-04T00:16:30.737Z,55.86
2023-01-04T00:18:58.142Z,55.56
2023-01-04T00:21:27.197Z,55.86
2023-01-04T00:23:56.067Z,56.30
2023-01-04T00:26:25.594Z,56.19
2023-01-04T00:29:00.065Z,56.49
2023-01-04T00:31:27.987Z,55.44
2023-01-04T00:33:59.518Z,56.38
2023-01-04T00:36:26.933Z,56.21
2023-01-04T00:39:10.074Z,56.38
2023-01-04T00:42:00.264Z,55.86
2023-01-04T00:44:28.718Z,56.38
2023-01-04T00:46:55.308Z,56.02
2023-01-04T00:49:21.829Z,56.29
2023-01-04T00:51:48.363Z,56.37
2023-01-04T00:54:16.063Z,56.25
2023-01-04T00:56:42.831Z,55.95
2023-01-04T00:59:11.763Z,56.07
2023-01-04T01:01:39.626Z,55.78
2023-01-04T01:04:06.331Z,56.91
2023-01-04T01:06:34.411Z,56.84
2023-01-04T01:09:01.620Z,56.74
2023-01-04T01:11:29.176Z,56.92
2023-01-04T01:13:55.885Z,56.79
2023-01-04T01:16:51.603Z,56.08
2023-01-04T01:19:10.486Z,56.96
2023-01-04T01:21:38.003Z,56.87
2023-01-04T01:24:05.114Z,57.35
2023-01-04T01:26:32.077Z,57.22
2023-01-04T01:28:58.994Z,57.05
2023-01-04T01:31:27.870Z,56.41
2023-01-04T01:33:55.977Z,57.38
2023-01-04T01:36:24.662Z,57.20
2023-01-04T01:38:51.544Z,56.60
2023-01-04T01:41:21.576Z,56.23
2023-01-04T01:44:00.299Z,57.11
2023-01-04T01:46:32.612Z,56.54
2023-01-04T01:49:37.438Z,56.67
2023-01-04T01:52:07.019Z,57.20
2023-01-04T01:54:39.665Z,57.35
2023-01-04T01:57:09.481Z,57.41
2023-01-04T01:59:40.690Z,57.52
2023-01-04T02:02:07.460Z,57.29
2023-01-04T02:04:37.041Z,56.91
2023-01-04T02:07:04.314Z,57.25
2023-01-04T02:09:32.355Z,57.33
2023-01-04T02:11:58.900Z,57.34
2023-01-04T02:14:29.173Z,57.21
2023-01-04T02:17:13.637Z,57.02
2023-01-04T02:20:12.928Z,58.04
2023-01-04T02:22:45.480Z,57.66
2023-01-04T02:25:42.988Z,57.38
2023-01-04T02:28:16.017Z,57.96
2023-01-04T02:30:45.277Z,57.55
2023-01-04T02:33:30.820Z,58.04
2023-01-04T02:36:07.815Z,57.13
2023-01-04T02:38:36.860Z,57.20
2023-01-04T02:41:15.713Z,58.36
2023-01-04T02:44:14.538Z,57.33
2023-01-04T02:46:48.540Z,58.02
2023-01-04T02:49:33.493Z,57.14
2023-01-04T02:52:00.123Z,57.90
2023-01-04T02:54:32.694Z,58.08
2023-01-04T02:57:15.769Z,58.15
2023-01-04T02:59:50.951Z,57.44
2023-01-04T03:03:16.897Z,57.60
2023-01-04T03:06:16.992Z,58.08
2023-01-04T03:08:59.052Z,58.37
2023-01-04T03:11:52.955Z,58.01
2023-01-04T03:14:30.780Z,57.56
2023-01-04T03:17:00.290Z,57.72
2023-01-04T03:19:53.623Z,57.57
2023-01-04T03:22:48.720Z,58.69
2023-01-04T03:25:37.596Z,58.27
2023-01-04T03:28:25.288Z,58.71
2023-01-04T03:31:26.984Z,57.95
2023-01-04T03:34:12.710Z,58.71
2023-01-04T03:36:54.135Z,58.92
2023-01-04T03:39:45.538Z,58.73
2023-01-04T03:42:56.147Z,57.92
2023-01-04T03:45:43.987Z,58.07
2023-01-04T03:48:34.622Z,58.63
2023-01-04T03:51:10.156Z,58.96
2023-01-04T03:53:45.727Z,58.00
2023-01-04T03:56:13.126Z,58.17
2023-01-04T03:58:40.028Z,58.63
2023-01-04T04:01:07.284Z,57.95
2023-01-04T04:03:52.880Z,58.31
2023-01-04T04:06:38.147Z,58.74
2023-01-04T04:09:04.722Z,57.91
2023-01-04T04:11:31.270Z,58.62
2023-01-04T04:13:59.284Z,58.66
2023-01-04T04:16:26.845Z,58.65
2023-01-04T04:18:53.833Z,58.12
2023-01-04T04:21:20.347Z,59.03
2023-01-04T04:23:46.902Z,58.87
2023-01-04T04:26:13.480Z,58.46
2023-01-04T04:28:39.993Z,59.08
2023-01-04T04:31:06.701Z,58.76
2023-01-04T04:33:33.242Z,59.14
2023-01-04T04:35:59.839Z,58.27
2023-01-04T04:38:26.393Z,58.88
2023-01-04T04:41:11.271Z,58.88
2023-01-04T04:43:37.789Z,58.24
2023-01-04T04:46:04.675Z,59.29
2023-01-04T04:48:31.458Z,58.96
2023-01-04T04:50:57.995Z,58.73
2023-01-04T04:53:24.531Z,58.47
2023-01-04T04:55:51.977Z,58.89
2023-01-04T04:58:19.120Z,59.14
2023-01-04T05:00:45.703Z,59.39
2023-01-04T05:03:12.594Z,58.98
2023-01-04T05:05:39.130Z,58.19
2023-01-04T05:08:05.801Z,59.48
2023-01-04T05:10:32.344Z,59.37
2023-01-04T05:13:01.917Z,59.05
2023-01-04T05:15:41.399Z,58.65
2023-01-04T05:18:09.611Z,58.42
2023-01-04T05:20:36.410Z,58.82
2023-01-04T05:23:03.042Z,58.94
2023-01-04T05:25:29.561Z,59.28
2023-01-04T05:27:56.201Z,59.32
2023-01-04T05:30:41.971Z,59.55
2023-01-04T05:33:08.581Z,59.46
2023-01-04T05:35:35.222Z,59.04
2023-01-04T05:38:01.789Z,58.62
2023-01-04T05:40:28.667Z,58.71
2023-01-04T05:42:55.269Z,58.33
2023-01-04T05:45:21.796Z,58.49
2023-01-04T05:47:52.669Z,59.32
2023-01-04T05:50:21.409Z,59.73
2023-01-04T05:52:48.518Z,58.57
2023-01-04T05:55:15.271Z,58.61
2023-01-04T05:57:42.188Z,59.17
2023-01-04T06:00:11.301Z,59.31
2023-01-04T06:02:38.146Z,58.90
2023-01-04T06:05:05.723Z,58.60
2023-01-04T06:07:32.566Z,59.71
2023-01-04T06:09:59.277Z,59.33
2023-01-04T06:12:26.163Z,59.51
2023-01-04T06:14:52.706Z,58.72
2023-01-04T06:17:19.718Z,59.68
2023-01-04T06:19:46.403Z,59.00
2023-01-04T06:22:12.927Z,59.37
2023-01-04T06:24:39.428Z,59.60
2023-01-04T06:27:05.921Z,59.49
2023-01-04T06:29:32.435Z,59.95
2023-01-04T06:31:58.975Z,59.58
2023-01-04T06:34:30.832Z,59.30
2023-01-04T06:36:57.837Z,58.93
2023-01-04T06:39:24.434Z,58.86
2023-01-04T06:41:50.982Z,59.57
2023-01-04T06:44:17.477Z,59.16
2023-01-04T06:46:44.447Z,59.72
2023-01-04T06:49:10.996Z,58.87
2023-01-04T06:51:37.555Z,59.65
2023-01-04T06:54:04.198Z,58.70
2023-01-04T06:56:32.069Z,58.73
2023-01-04T06:58:58.737Z,59.75
2023-01-04T07:01:25.478Z,59.18
2023-01-04T07:03:52.226Z,59.25
2023-01-04T07:06:18.799Z,59.31
2023-01-04T07:08:47.552Z,59.76
2023-01-04T07:11:14.154Z,59.46
2023-01-04T07:13:40.655Z,58.85
2023-01-04T07:16:07.384Z,59.67
2023-01-04T07:18:33.946Z,58.87
2023-01-04T07:21:00.469Z,59.39
2023-01-04T07:23:26.998Z,59.45
2023-01-04T07:25:53.615Z,59.41
2023-01-04T07:28:38.822Z,60.19
2023-01-04T07:31:08.649Z,59.72
2023-01-04T07:33:35.338Z,59.75
2023-01-04T07:36:06.538Z,59.91
2023-01-04T07:38:35.000Z,59.54
2023-01-04T07:41:01.676Z,59.53
2023-01-04T07:43:28.896Z,59.30
2023-01-04T07:45:55.702Z,59.51
2023-01-04T07:48:22.338Z,60.25
2023-01-04T07:50:49.783Z,59.37
2023-01-04T07:53:16.373Z,59.75
2023-01-04T07:55:42.964Z,59.21
2023-01-04T07:58:09.466Z,59.93
2023-01-04T08:00:36.024Z,59.44
2023-01-04T08:03:02.703Z,59.90
2023-01-04T08:05:32.872Z,60.19
2023-01-04T08:07:59.673Z,60.02
2023-01-04T08:10:26.528Z,60.09
2023-01-04T08:12:53.113Z,59.08
2023-01-04T08:15:19.688Z,60.39
2023-01-04T08:17:46.231Z,59.36
2023-01-04T08:20:12.776Z,59.50
2023-01-04T08:22:39.468Z,59.60
2023-01-04T08:25:07.001Z,60.13
2023-01-04T08:27:33.844Z,60.06
2023-01-04T08:30:00.425Z,60.04
2023-01-04T08:32:26.979Z,60.59
2023-01-04T08:34:54.230Z,60.24
2023-01-04T08:37:21.030Z,59.37
2023-01-04T08:39:49.569Z,60.08
2023-01-04T08:42:22.408Z,59.85
2023-01-04T08:44:59.166Z,59.71
2023-01-04T08:47:26.805Z,59.92
2023-01-04T08:49:53.381Z,60.59
2023-01-04T08:52:19.914Z,59.78
2023-01-04T08:54:46.419Z,60.16
2023-01-04T08:57:13.027Z,60.01
2023-01-04T08:59:39.699Z,60.12
2023-01-04T09:02:27.033Z,60.40
2023-01-04T09:04:59.581Z,60.31
2023-01-04T09:07:29.191Z,60.44
2023-01-04T09:09:55.738Z,60.70
2023-01-04T09:12:22.292Z,60.25
2023-01-04T09:14:48.807Z,59.37
2023-01-04T09:17:15.563Z,60.61
2023-01-04T09:19:42.104Z,60.35
2023-01-04T09:22:08.785Z,60.14
2023-01-04T09:24:35.507Z,60.59
2023-01-04T09:27:02.190Z,59.38
2023-01-04T09:29:28.687Z,59.79
2023-01-04T09:31:55.320Z,60.19
2023-01-04T09:34:22.413Z,59.99
2023-01-04T09:36:49.231Z,59.76
2023-01-04T09:39:22.254Z,59.87
2023-01-04T09:41:55.971Z,59.95
2023-01-04T09:48:07.282Z,60.78
2023-01-04T09:50:44.466Z,60.35
2023-01-04T09:53:28.050Z,60.26
2023-01-04T09:56:08.708Z,60.25
2023-01-04T09:58:38.355Z,60.08
2023-01-04T10:01:15.206Z,60.34
2023-01-04T10:04:13.143Z,60.69
2023-01-04T10:06:39.717Z,60.45
2023-01-04T10:09:14.233Z,60.48
2023-01-04T10:12:12.807Z,59.98
2023-01-04T10:14:40.466Z,60.02
2023-01-04T10:17:18.050Z,59.91
2023-01-04T10:23:01.541Z,60.27
2023-01-04T10:26:01.121Z,60.24
2023-01-04T10:29:11.939Z,59.93
2023-01-04T10:31:50.096Z,60.67
2023-01-04T10:34:30.782Z,59.98
2023-01-04T10:37:00.839Z,60.08
2023-01-04T10:39:35.919Z,60.13
2023-01-04T10:42:23.672Z,60.44
2023-01-04T10:45:16.468Z,60.40
2023-01-04T10:47:47.646Z,59.81
2023-01-04T10:50:41.831Z,60.13
2023-01-04T10:53:47.357Z,59.95
2023-01-04T10:56:46.281Z,60.44
2023-01-04T10:59:31.199Z,60.80
2023-01-04T11:02:08.719Z,60.40
2023-01-04T11:04:51.259Z,59.92
2023-01-04T11:07:24.742Z,60.74
2023-01-04T11:09:52.133Z,59.68
2023-01-04T11:12:22.537Z,60.10
2023-01-04T11:14:51.160Z,60.21
2023-01-04T11:17:18.525Z,60.48
2023-01-04T11:19:45.176Z,60.69
2023-01-04T11:22:21.359Z,60.44
2023-01-04T11:25:32.997Z,59.36
2023-01-04T11:28:08.025Z,60.33
2023-01-04T11:31:09.433Z,59.92
2023-01-04T11:34:00.743Z,59.98
2023-01-04T11:36:35.251Z,59.75
2023-01-04T11:39:02.204Z,59.97
2023-01-04T11:41:28.937Z,59.89
2023-01-04T11:44:01.346Z,60.37
2023-01-04T11:46:29.211Z,60.01
2023-01-04T11:48:56.475Z,60.17
2023-01-04T11:51:29.058Z,59.97
2023-01-04T11:54:19.416Z,60.20
2023-01-04T11:57:11.421Z,60.72
2023-01-04T11:59:38.835Z,60.34
2023-01-04T12:02:58.668Z,60.11
2023-01-04T12:05:28.288Z,60.77
2023-01-04T12:07:56.123Z,59.97
2023-01-04T12:10:26.679Z,59.68
2023-01-04T12:13:01.263Z,60.35
2023-01-04T12:15:33.159Z,59.76
2023-01-04T12:18:11.532Z,60.04
2023-01-04T12:20:38.120Z,59.82
2023-01-04T12:23:05.567Z,60.19
2023-01-04T12:25:45.868Z,59.96
2023-01-04T12:28:42.466Z,60.17
2023-01-04T12:31:22.145Z,60.34
2023-01-04T12:33:54.228Z,59.88
2023-01-04T12:36:41.155Z,59.99
2023-01-04T12:39:17.118Z,59.41
2023-01-04T12:42:00.248Z,60.05
2023-01-04T12:44:36.287Z,60.00
2023-01-04T12:47:47.353Z,59.67
2023-01-04T12:50:23.093Z,59.54
2023-01-04T12:53:29.352Z,59.76
2023-01-04T12:55:45.787Z,59.50
2023-01-04T12:58:43.851Z,59.73
2023-01-04T13:01:26.553Z,59.78
2023-01-04T13:04:48.864Z,59.60
2023-01-04T13:07:25.884Z,59.39
2023-01-04T13:09:57.502Z,59.91
2023-01-04T13:12:38.955Z,59.54
2023-01-04T13:15:24.523Z,59.53
2023-01-04T13:17:52.413Z,59.85
2023-01-04T13:20:25.797Z,59.27
2023-01-04T13:22:55.630Z,59.89
2023-01-04T13:25:24.168Z,59.10
2023-01-04T13:28:00.208Z,59.60
2023-01-04T13:30:30.982Z,59.33
2023-01-04T13:33:25.015Z,59.63
2023-01-04T13:35:57.689Z,59.65
2023-01-04T13:38:24.223Z,59.81
2023-01-04T13:40:50.789Z,59.89
2023-01-04T13:43:47.398Z,60.18
2023-01-04T13:46:23.860Z,60.34
2023-01-04T13:48:53.570Z,60.49
2023-01-04T13:51:32.105Z,60.20
2023-01-04T13:54:03.278Z,60.23
2023-01-04T13:56:32.489Z,60.02
2023-01-04T13:58:59.900Z,60.13
2023-01-04T14:01:29.801Z,60.12
2023-01-04T14:04:02.477Z,60.04
2023-01-04T14:06:42.041Z,60.09
2023-01-04T14:09:11.490Z,59.93
2023-01-04T14:12:06.202Z,59.88
2023-01-04T14:14:58.366Z,60.29
2023-01-04T14:17:27.831Z,59.40
2023-01-04T14:20:26.573Z,59.48
2023-01-04T14:22:57.644Z,59.81
2023-01-04T14:25:38.505Z,59.29
2023-01-04T14:28:24.801Z,59.24
2023-01-04T14:31:06.842Z,59.55
2023-01-04T14:33:36.282Z,59.15
2023-01-04T14:36:29.127Z,59.39
2023-01-04T14:39:08.021Z,59.45
2023-01-04T14:41:37.427Z,59.24
2023-01-04T14:44:13.166Z,58.96
2023-01-04T14:46:41.874Z,59.33
2023-01-04T14:49:08.810Z,59.26
2023-01-04T14:51:46.829Z,59.21
2023-01-04T14:54:20.383Z,59.01
2023-01-04T14:56:50.919Z,59.07
2023-01-04T14:59:17.589Z,59.08
2023-01-04T15:01:44.380Z,58.94
2023-01-04T15:04:11.056Z,58.94
2023-01-04T15:06:47.393Z,59.35
2023-01-04T15:09:13.951Z,58.98
2023-01-04T15:11:40.571Z,58.83
2023-01-04T15:14:07.113Z,59.13
2023-01-04T15:16:33.748Z,59.00
2023-01-04T15:19:00.310Z,58.97
2023-01-04T15:21:26.991Z,58.86
2023-01-04T15:23:53.574Z,58.86
2023-01-04T15:26:20.126Z,58.82
2023-01-04T15:28:46.690Z,58.72
2023-01-04T15:31:14.872Z,58.83
2023-01-04T15:33:41.604Z,58.72
2023-01-04T15:36:16.228Z,58.70
2023-01-04T15:38:46.672Z,58.85
2023-01-04T15:41:36.785Z,58.75
2023-01-04T15:44:04.558Z,58.87
2023-01-04T15:46:31.361Z,58.81
2023-01-04T15:48:57.972Z,58.81
2023-01-04T15:51:24.545Z,58.84
2023-01-04T15:53:52.998Z,58.64
2023-01-04T15:56:20.357Z,59.06
2023-01-04T15:58:53.637Z,59.11
2023-01-04T16:01:20.977Z,58.90
2023-01-04T16:03:51.558Z,58.51
2023-01-04T16:06:21.105Z,58.78
2023-01-04T16:08:50.556Z,58.72
2023-01-04T16:11:22.938Z,58.69
2023-01-04T16:13:51.309Z,58.80
2023-01-04T16:16:19.980Z,58.97
2023-01-04T16:18:48.479Z,59.13
2023-01-04T16:21:16.063Z,58.83
2023-01-04T16:23:42.603Z,59.10
2023-01-04T16:26:12.523Z,58.69
2023-01-04T16:28:39.215Z,58.87
2023-01-04T16:31:06.861Z,58.77
2023-01-04T16:33:35.498Z,58.48
2023-01-04T16:36:07.239Z,59.01
2023-01-04T16:38:42.162Z,59.04
2023-01-04T16:41:12.339Z,58.67
2023-01-04T16:43:47.758Z,59.01
2023-01-04T16:46:33.687Z,58.65
2023-01-04T16:49:06.506Z,58.75
2023-01-04T16:51:35.082Z,58.59
2023-01-04T16:54:03.839Z,58.85
2023-01-04T16:56:31.395Z,58.72
2023-01-04T16:58:58.362Z,58.76
2023-01-04T17:01:28.089Z,58.65
2023-01-04T17:03:59.688Z,58.91
2023-01-04T17:06:31.288Z,58.50
2023-01-04T17:08:58.947Z,58.69
2023-01-04T17:12:11.465Z,58.48
2023-01-04T17:14:14.553Z,58.66
2023-01-04T17:16:42.208Z,58.51
2023-01-04T17:19:09.773Z,58.38
2023-01-04T17:21:36.615Z,58.29
2023-01-04T17:24:03.867Z,58.38
2023-01-04T17:26:32.167Z,58.38
2023-01-04T17:29:01.173Z,58.47
2023-01-04T17:31:30.974Z,58.63
2023-01-04T17:33:57.780Z,58.52
2023-01-04T17:36:24.640Z,58.11
2023-01-04T17:38:51.682Z,58.37
2023-01-04T17:41:25.432Z,58.14
2023-01-04T17:43:53.759Z,58.26
2023-01-04T17:46:23.751Z,58.39
2023-01-04T17:49:17.763Z,58.62
2023-01-04T17:51:39.775Z,58.15
2023-01-04T17:54:08.461Z,58.46
2023-01-04T17:56:37.137Z,58.27
2023-01-04T17:59:06.888Z,58.43
2023-01-04T18:01:35.096Z,58.66
2023-01-04T18:04:03.058Z,58.21
2023-01-04T18:06:33.119Z,58.70
2023-01-04T18:09:01.047Z,58.10
2023-01-04T18:11:27.929Z,58.26
2023-01-04T18:13:54.611Z,58.23
2023-01-04T18:16:26.528Z,58.18
2023-01-04T18:18:58.178Z,57.96
2023-01-04T18:21:28.837Z,58.40
2023-01-04T18:24:34.840Z,58.56
2023-01-04T18:27:20.016Z,58.14
2023-01-04T18:29:34.278Z,58.20
2023-01-04T18:32:00.981Z,58.17
2023-01-04T18:34:27.722Z,58.17
2023-01-04T18:36:54.351Z,58.38
2023-01-04T18:39:21.592Z,58.48
2023-01-04T18:41:48.105Z,58.08
2023-01-04T18:44:32.779Z,58.34
2023-01-04T18:47:00.246Z,58.18
2023-01-04T18:49:26.814Z,57.99
2023-01-04T18:51:53.364Z,57.87
2023-01-04T18:54:20.594Z,57.99
2023-01-04T18:56:47.758Z,58.14
2023-01-04T18:59:17.288Z,58.22
2023-01-04T19:01:45.182Z,58.08
2023-01-04T19:04:12.771Z,58.34
2023-01-04T19:06:40.438Z,57.73
2023-01-04T19:09:07.616Z,58.18
2023-01-04T19:11:34.594Z,58.17
2023-01-04T19:14:01.858Z,58.27
2023-01-04T19:16:31.072Z,58.60
2023-01-04T19:18:59.232Z,57.83
2023-01-04T19:21:25.858Z,58.06
2023-01-04T19:23:52.716Z,58.10
2023-01-04T19:26:19.645Z,58.31
2023-01-04T19:28:46.213Z,58.43
2023-01-04T19:31:14.193Z,58.18
2023-01-04T19:33:41.066Z,57.97
2023-01-04T19:36:09.342Z,58.56
2023-01-04T19:38:36.476Z,57.99
2023-01-04T19:41:03.902Z,57.98
2023-01-04T19:43:30.635Z,58.21
2023-01-04T19:45:57.316Z,57.80
2023-01-04T19:48:23.976Z,57.96
2023-01-04T19:51:03.521Z,58.14
2023-01-04T19:53:30.023Z,58.01
2023-01-04T19:55:57.224Z,57.80
2023-01-04T19:58:23.787Z,57.97
2023-01-04T20:00:54.565Z,57.72
2023-01-04T20:03:22.582Z,57.80
2023-01-04T20:05:49.919Z,57.98
2023-01-04T20:08:16.471Z,58.20
2023-01-04T20:10:43.185Z,58.06
2023-01-04T20:13:09.777Z,57.50
2023-01-04T20:15:40.085Z,57.41
2023-01-04T20:18:13.481Z,57.73
2023-01-04T20:20:47.228Z,57.58
2023-01-04T20:23:15.003Z,57.99
2023-01-04T20:25:43.231Z,57.50
2023-01-04T20:28:09.819Z,57.61
2023-01-04T20:30:36.956Z,57.67
2023-01-04T20:33:03.623Z,57.46
2023-01-04T20:35:31.286Z,57.34
2023-01-04T20:37:58.478Z,58.16
2023-01-04T20:40:25.796Z,57.37
2023-01-04T20:43:11.044Z,57.34
2023-01-04T20:45:47.721Z,57.54
2023-01-04T20:48:15.139Z,57.31
2023-01-04T20:50:42.247Z,57.57
2023-01-04T20:53:08.884Z,57.21
2023-01-04T20:55:40.715Z,56.86
2023-01-04T20:58:12.136Z,57.34
2023-01-04T21:00:39.509Z,57.23
2023-01-04T21:03:08.304Z,57.24
2023-01-04T21:05:40.464Z,56.77
2023-01-04T21:08:07.453Z,56.91
2023-01-04T21:10:35.049Z,57.26
2023-01-04T21:13:01.641Z,57.06
2023-01-04T21:15:28.255Z,56.83
2023-01-04T21:17:54.833Z,56.89
2023-01-04T21:20:21.768Z,56.59
2023-01-04T21:22:48.380Z,56.79
2023-01-04T21:25:15.740Z,56.92
2023-01-04T21:27:42.279Z,56.84
2023-01-04T21:30:09.318Z,56.68
2023-01-04T21:32:35.907Z,57.05
2023-01-04T21:35:02.452Z,56.93
2023-01-04T21:37:29.977Z,57.00
2023-01-04T21:39:56.779Z,56.81
2023-01-04T21:42:23.293Z,57.11
2023-01-04T21:44:49.797Z,56.91
2023-01-04T21:47:16.333Z,56.91
2023-01-04T21:49:43.958Z,56.77
2023-01-04T21:52:11.381Z,57.06
2023-01-04T21:54:39.158Z,56.75
2023-01-04T21:57:08.939Z,57.01
2023-01-04T21:59:36.104Z,56.88
2023-01-04T22:02:03.365Z,56.89
2023-01-04T22:04:30.183Z,56.68
2023-01-04T22:06:56.861Z,56.81
2023-01-04T22:09:23.507Z,57.21
2023-01-04T22:11:50.210Z,56.88
2023-01-04T22:14:18.136Z,57.17
2023-01-04T22:16:44.930Z,56.90
2023-01-04T22:19:13.423Z,57.31
2023-01-04T22:21:40.216Z,57.10
2023-01-04T22:24:07.850Z,57.17
2023-01-04T22:26:34.495Z,57.07
2023-01-04T22:29:01.556Z,57.65
2023-01-04T22:31:28.474Z,57.15
2023-01-04T22:33:55.144Z,57.23
2023-01-04T22:36:23.749Z,57.33
2023-01-04T22:38:55.554Z,57.43
2023-01-04T22:41:25.065Z,57.24
2023-01-04T22:44:00.223Z,57.44
2023-01-04T22:46:28.088Z,57.55
2023-01-04T22:48:55.300Z,57.59
2023-01-04T22:51:22.920Z,57.54
2023-01-04T22:53:52.733Z,57.74
2023-01-04T22:56:21.565Z,57.38
2023-01-04T22:58:53.334Z,57.39
2023-01-04T23:01:22.199Z,57.34
2023-01-04T23:03:49.121Z,57.85
2023-01-04T23:06:15.901Z,57.28
2023-01-04T23:08:42.443Z,57.84
2023-01-04T23:11:15.579Z,57.72
2023-01-04T23:13:42.465Z,57.38
2023-01-04T23:16:11.683Z,57.44
2023-01-04T23:18:38.585Z,57.37
2023-01-04T23:21:06.021Z,57.42
2023-01-04T23:23:32.693Z,57.44
2023-01-04T23:26:14.194Z,57.51
2023-01-04T23:28:41.193Z,57.55
2023-01-04T23:31:10.192Z,57.35
2023-01-04T23:33:37.295Z,57.10
2023-01-04T23:36:20.255Z,57.58
2023-01-04T23:38:58.599Z,57.73
2023-01-04T23:41:44.382Z,57.45
2023-01-04T23:44:14.152Z,57.68
2023-01-04T23:46:41.204Z,57.89
2023-01-04T23:49:07.726Z,57.71
2023-01-04T23:51:34.271Z,57.16
2023-01-04T23:54:00.782Z,57.80
2023-01-04T23:56:27.319Z,57.66
2023-01-04T23:58:53.856Z,57.65
